METAR AND TAF INFORMATION
METAR FOR LGMT
ADDS - METARS form results

(1015 UTC 22 May 2022)
Data provider http://aviationweather.gov/metar/data/
 
METAR text: LGMT 220950Z VRB03KT 9999 FEW020 25/13 Q1010
Conditions at: LGMT (MITILINI , GR) observed 0950 UTC 22 May 2022
Temperature: 25.0°C (77°F)
Dewpoint: 13.0°C (55°F) [RH = 47%]
Pressure (altimeter): 29.82 inches Hg (1010.0 mb)
Winds: variable direction winds at 3 MPH (3 knots; 1.5 m/s)
Visibility: 6 or more miles (10+ km)
Ceiling: at least 12,000 feet AGL
Clouds: few clouds at 2000 feet AGL
Weather: no significant weather observed at this time

METAR text: LGMT 220920Z VRB02KT 9999 FEW020 24/14 Q1010
Conditions at: LGMT (MITILINI , GR) observed 0920 UTC 22 May 2022
Temperature: 24.0°C (75°F)
Dewpoint: 14.0°C (57°F) [RH = 54%]
Pressure (altimeter): 29.82 inches Hg (1010.0 mb)
Winds: variable direction winds at 2 MPH (2 knots; 1.0 m/s)
Visibility: 6 or more miles (10+ km)
Ceiling: at least 12,000 feet AGL
Clouds: few clouds at 2000 feet AGL
Weather: no significant weather observed at this time

Forecast for: LGMT (MITILINI , GR)
Text: TAF LGMT 220800Z 2209/2218 VRB05KT 9999 FEW020
Forecast period: 0900 to 1000 UTC 22 May 2022
Forecast type: FROM: standard forecast or significant change
Winds: variable direction winds at 6 MPH (5 knots; 2.6 m/s)
Visibility: 6 or more miles (10+ km)
Ceiling: at least 12,000 feet AGL
Clouds: few clouds at 2000 feet AGL
Weather: no significant weather forecast for this period
Text: BECMG 2210/2212 33008KT
Forecast period: 1000 to 1800 UTC 22 May 2022
Forecast type: BECOMING: Conditions expected to become as follows by 1200 UTC 22 May 2022
Winds: from the NNW (330 degrees) at 9 MPH (8 knots; 4.1 m/s)
Visibility: 6 or more miles (10+ km)
Ceiling: at least 12,000 feet AGL
Clouds: few clouds at 2000 feet AGL
Weather: no significant weather forecast for this period
Text: TEMPO 2212/2218 FEW018 SCT020 BKN040
Forecast period: 1200 to 1800 UTC 22 May 2022
Forecast type: TEMPORARY: The following changes expected for less than half the time period
Visibility: missing
Ceiling: 4000 feet AGL
Clouds: few clouds at 1800 feet AGL
scattered clouds at 2000 feet AGL
broken clouds at 4000 feet AGL
Weather: no significant weather forecast for this period

 AIRPORT MAP

 RUNWAY INFORMATION
Runway 14 Runway length 7894 ft Runway width 148 ft
Runway elevation 57 ft Runway displaced threshold 269 ft Runway heading 148
Runway 32 Runway length 7894 ft Runway width 148 ft
Runway elevation 21 ft Runway displaced threshold 1755 ft Runway heading 328

 AIRPORT FREQUENCIES
Type A/G Name RDO Frequency 563.7 MHZ
Type APP Name APP Frequency 122.1 MHZ
Type TWR Name TWR Frequency 122.1 MHZ

 AIRPORT NEAR NAVIGATION AIDS
Type VOR-DME Name Lesvos Frequency 114200 KHZ
Type NDB Name Lesvos Frequency 397 KHZ
Type VOR-DME Name Mitilini Frequency 109600 KHZ





Powered by Virtual Airlines Manager

Maps by Rafael Santos